Spring Time — WDG6608 — position and weather

sailwx.info

Track history (hours):
 
Tides and Currents Weather Stations Pressure Air Temp Water Temp Dewpoint Dewpoint Depression Visibility Wind Speed Wind Dir Waves Ship Positions

Spring Time

Owner: Spring Time 110,LLC, fort lauderdale, FL. More information available from US FCC via Universal Licensing System.

Last reported at 2017-Sep-07 04:10 UTC. Time now 2017-Sep-26 02:16 UTC.
Position N 26°10' W 080°06'.
Warning: this ship's position is 18 days out of date.

Length 33 m; draft 2 m.

Type: Pleasure craft. MMSI: 303400000.

Date/timePositionNaut miles runAvg speedWind from/ knotsBaromVisibWave heightAir tempDewpointWater temp
2017-Sep-07 04:10N 26°10' W 080°06'0 0.0
2017-Sep-07 00:51N 26°10' W 080°06'0 0.0
2017-Sep-06 12:25N 26°10' W 080°06'2 3.9
2017-Sep-06 11:59N 26°08' W 080°07'1 2.5
2017-Sep-06 11:28N 26°07' W 080°07'2 3.4
2017-Sep-06 11:00N 26°06' W 080°05'4813.1
2017-Sep-06 07:22N 26°53' W 079°60'410.5
2017-Sep-06 07:01N 26°57' W 079°60'  
2017-Sep-01 19:00N 39°39' W 074°06'5818.3
2017-Sep-01 15:51N 40°36' W 074°03'616.5
2017-Sep-01 15:30N 40°42' W 074°00'7217.3
2017-Sep-01 11:21N 41°08' W 072°31'  
2017-Aug-28 14:07N 42°19' W 070°50'219.1
2017-Aug-28 14:01N 42°19' W 070°53'714.2
2017-Aug-28 13:30N 42°21' W 071°02'1 0.7
2017-Aug-28 12:06N 42°22' W 071°03'1 6.1
2017-Aug-28 12:00N 42°22' W 071°03'0 0.1
2017-Aug-28 11:17N 42°22' W 071°03'0 0.0
2017-Aug-28 10:47N 42°22' W 071°03'0 0.0
2017-Aug-28 09:48N 42°22' W 071°03'0 0.0
2017-Aug-28 09:24N 42°22' W 071°03'0 0.0
2017-Aug-28 07:31N 42°22' W 071°03'0 0.0
2017-Aug-28 04:27N 42°22' W 071°03'  
Track history (hours):
 
Tides and Currents Weather Stations Pressure Air Temp Water Temp Dewpoint Dewpoint Depression Visibility Wind Speed Wind Dir Waves Ship Positions

Spring Time

Owner: Spring Time 110,LLC, fort lauderdale, FL. More information available from US FCC via Universal Licensing System.

Last reported at 2017-Sep-07 04:10 UTC. Time now 2017-Sep-26 02:16 UTC.
Position N 26°10' W 080°06'.
Warning: this ship's position is 18 days out of date.

Length 33 m; draft 2 m.

Type: Pleasure craft. MMSI: 303400000.

Date/timePositionNaut miles runAvg speedWind from/ knotsBaromVisibWave heightAir tempDewpointWater temp
2017-Sep-07 04:10N 26°10' W 080°06'0 0.0
2017-Sep-07 00:51N 26°10' W 080°06'0 0.0
2017-Sep-06 12:25N 26°10' W 080°06'2 3.9
2017-Sep-06 11:59N 26°08' W 080°07'1 2.5
2017-Sep-06 11:28N 26°07' W 080°07'2 3.4
2017-Sep-06 11:00N 26°06' W 080°05'4813.1
2017-Sep-06 07:22N 26°53' W 079°60'410.5
2017-Sep-06 07:01N 26°57' W 079°60'  
2017-Sep-01 19:00N 39°39' W 074°06'5818.3
2017-Sep-01 15:51N 40°36' W 074°03'616.5
2017-Sep-01 15:30N 40°42' W 074°00'7217.3
2017-Sep-01 11:21N 41°08' W 072°31'  
2017-Aug-28 14:07N 42°19' W 070°50'219.1
2017-Aug-28 14:01N 42°19' W 070°53'714.2
2017-Aug-28 13:30N 42°21' W 071°02'1 0.7
2017-Aug-28 12:06N 42°22' W 071°03'1 6.1
2017-Aug-28 12:00N 42°22' W 071°03'0 0.1
2017-Aug-28 11:17N 42°22' W 071°03'0 0.0
2017-Aug-28 10:47N 42°22' W 071°03'0 0.0
2017-Aug-28 09:48N 42°22' W 071°03'0 0.0
2017-Aug-28 09:24N 42°22' W 071°03'0 0.0
2017-Aug-28 07:31N 42°22' W 071°03'0 0.0
2017-Aug-28 04:27N 42°22' W 071°03'  

Dump ship's entire track history